createdAt,value
2022-10-19T00:01:10.861Z,10.53
2022-10-19T00:03:39.075Z,10.39
2022-10-19T00:06:18.370Z,10.55
2022-10-19T00:08:45.947Z,10.13
2022-10-19T00:11:13.700Z,10.52
2022-10-19T00:13:40.893Z,10.08
2022-10-19T00:16:14.063Z,10.59
2022-10-19T00:18:43.474Z,10.44
2022-10-19T00:21:12.699Z,10.57
2022-10-19T00:23:40.067Z,10.46
2022-10-19T00:26:07.568Z,10.52
2022-10-19T00:28:34.783Z,10.18
2022-10-19T00:31:06.527Z,10.37
2022-10-19T00:33:34.032Z,10.32
2022-10-19T00:36:01.460Z,9.63
2022-10-19T00:38:28.629Z,10.20
2022-10-19T00:40:55.588Z,10.15
2022-10-19T00:43:26.734Z,10.08
2022-10-19T00:45:53.990Z,10.36
2022-10-19T00:48:30.515Z,10.25
2022-10-19T00:50:59.761Z,10.26
2022-10-19T00:53:29.421Z,10.29
2022-10-19T00:55:57.575Z,10.26
2022-10-19T00:58:24.619Z,10.27
2022-10-19T01:00:51.636Z,10.28
2022-10-19T01:03:18.741Z,10.30
2022-10-19T01:05:45.945Z,10.33
2022-10-19T01:08:13.735Z,9.97
2022-10-19T01:10:56.167Z,10.41
2022-10-19T01:13:36.003Z,10.42
2022-10-19T01:16:42.701Z,10.48
2022-10-19T01:19:34.282Z,10.46
2022-10-19T01:22:25.806Z,10.49
2022-10-19T01:25:14.487Z,10.46
2022-10-19T01:28:00.485Z,10.38
2022-10-19T01:30:33.378Z,10.38
2022-10-19T01:33:24.921Z,10.34
2022-10-19T01:36:05.339Z,10.29
2022-10-19T01:38:55.882Z,10.18
2022-10-19T01:41:34.801Z,9.60
2022-10-19T01:44:20.697Z,10.29
2022-10-19T01:46:55.071Z,10.26
2022-10-19T01:50:07.262Z,10.39
2022-10-19T01:52:35.717Z,10.40
2022-10-19T01:55:04.625Z,10.41
2022-10-19T01:57:40.131Z,10.01
2022-10-19T02:00:10.987Z,10.43
2022-10-19T02:02:44.948Z,10.52
2022-10-19T02:05:13.432Z,10.24
2022-10-19T02:07:44.309Z,10.45
2022-10-19T02:10:11.624Z,10.36
2022-10-19T02:12:41.270Z,9.49
2022-10-19T02:15:16.971Z,10.44
2022-10-19T02:17:50.651Z,10.23
2022-10-19T02:20:18.491Z,10.33
2022-10-19T02:22:45.608Z,10.30
2022-10-19T02:25:13.404Z,10.31
2022-10-19T02:27:44.206Z,10.28
2022-10-19T02:30:17.175Z,9.84
2022-10-19T02:32:44.742Z,10.15
2022-10-19T02:35:14.718Z,10.22
2022-10-19T02:37:42.344Z,9.98
2022-10-19T02:40:10.552Z,10.24
2022-10-19T02:42:48.227Z,10.25
2022-10-19T02:45:21.877Z,10.05
2022-10-19T02:47:58.402Z,9.25
2022-10-19T02:50:25.690Z,9.95
2022-10-19T02:52:52.644Z,9.95
2022-10-19T02:55:19.605Z,10.04
2022-10-19T02:57:46.633Z,9.53
2022-10-19T03:00:13.662Z,10.07
2022-10-19T03:02:40.674Z,10.04
2022-10-19T03:05:08.630Z,10.01
2022-10-19T03:07:36.451Z,10.05
2022-10-19T03:10:04.319Z,9.69
2022-10-19T03:12:31.354Z,9.98
2022-10-19T03:14:58.339Z,9.96
2022-10-19T03:17:25.250Z,9.91
2022-10-19T03:19:52.159Z,9.81
2022-10-19T03:22:19.123Z,9.82
2022-10-19T03:24:46.200Z,9.90
2022-10-19T03:27:13.178Z,9.72
2022-10-19T03:29:40.202Z,9.77
2022-10-19T03:32:07.320Z,9.85
2022-10-19T03:34:34.355Z,9.73
2022-10-19T03:37:01.396Z,9.91
2022-10-19T03:39:28.371Z,9.73
2022-10-19T03:41:55.284Z,9.80
2022-10-19T03:44:22.308Z,9.58
2022-10-19T03:46:49.290Z,9.32
2022-10-19T03:49:16.358Z,9.35
2022-10-19T03:51:43.383Z,9.46
2022-10-19T03:54:15.961Z,9.85
2022-10-19T03:56:43.097Z,9.80
2022-10-19T03:59:13.694Z,9.34
2022-10-19T04:01:43.140Z,9.70
2022-10-19T04:04:13.128Z,9.49
2022-10-19T04:06:42.351Z,9.73
2022-10-19T04:09:12.952Z,9.69
2022-10-19T04:11:40.331Z,9.67
2022-10-19T04:16:36.337Z,9.68
2022-10-19T04:19:03.312Z,9.48
2022-10-19T04:21:36.190Z,9.66
2022-10-19T04:24:08.986Z,9.22
2022-10-19T04:26:42.601Z,9.67
2022-10-19T04:29:10.673Z,9.70
2022-10-19T04:31:38.482Z,9.70
2022-10-19T04:34:06.556Z,9.74
2022-10-19T04:36:34.086Z,9.01
2022-10-19T04:39:05.379Z,9.65
2022-10-19T04:41:35.389Z,9.87
2022-10-19T04:44:04.251Z,9.69
2022-10-19T04:46:31.338Z,9.34
2022-10-19T04:48:59.885Z,9.55
2022-10-19T04:51:27.804Z,9.83
2022-10-19T04:53:59.392Z,9.82
2022-10-19T04:56:28.263Z,9.87
2022-10-19T04:58:59.761Z,9.67
2022-10-19T05:01:28.441Z,9.91
2022-10-19T05:04:00.736Z,9.82
2022-10-19T05:06:28.919Z,9.94
2022-10-19T05:08:56.555Z,9.83
2022-10-19T05:11:23.947Z,9.70
2022-10-19T05:13:51.350Z,9.36
2022-10-19T05:16:21.439Z,9.71
2022-10-19T05:18:58.786Z,9.69
2022-10-19T05:21:27.836Z,9.74
2022-10-19T05:23:56.401Z,9.70
2022-10-19T05:26:25.866Z,9.53
2022-10-19T05:28:56.853Z,9.58
2022-10-19T05:31:27.132Z,9.74
2022-10-19T05:33:56.439Z,9.41
2022-10-19T05:36:32.408Z,9.73
2022-10-19T05:39:02.514Z,9.64
2022-10-19T05:41:29.644Z,9.57
2022-10-19T05:43:59.263Z,9.68
2022-10-19T05:46:28.679Z,9.65
2022-10-19T05:48:57.582Z,9.59
2022-10-19T05:51:26.656Z,9.50
2022-10-19T05:53:54.828Z,9.55
2022-10-19T05:56:24.625Z,9.21
2022-10-19T05:58:51.690Z,9.52
2022-10-19T06:01:20.306Z,9.50
2022-10-19T06:03:50.957Z,8.03
2022-10-19T06:06:17.952Z,9.03
2022-10-19T06:08:45.437Z,8.37
2022-10-19T06:11:14.797Z,8.85
2022-10-19T06:13:44.250Z,8.92
2022-10-19T06:16:12.902Z,9.35
2022-10-19T06:18:40.659Z,9.32
2022-10-19T06:21:11.287Z,9.31
2022-10-19T06:23:38.375Z,9.36
2022-10-19T06:26:11.618Z,9.12
2022-10-19T06:28:40.596Z,9.28
2022-10-19T06:31:09.511Z,9.31
2022-10-19T06:33:36.882Z,9.28
2022-10-19T06:36:16.037Z,9.37
2022-10-19T06:38:43.490Z,8.92
2022-10-19T06:41:11.545Z,9.36
2022-10-19T06:43:39.925Z,9.47
2022-10-19T06:46:11.204Z,9.52
2022-10-19T06:48:38.795Z,9.49
2022-10-19T06:51:07.642Z,9.32
2022-10-19T06:53:35.946Z,9.57
2022-10-19T06:56:05.400Z,9.35
2022-10-19T06:58:36.493Z,8.55
2022-10-19T07:01:04.404Z,9.52
2022-10-19T07:03:31.457Z,9.59
2022-10-19T07:06:01.050Z,9.51
2022-10-19T07:08:29.744Z,9.52
2022-10-19T07:10:58.812Z,9.41
2022-10-19T07:13:27.361Z,8.92
2022-10-19T07:16:03.703Z,9.59
2022-10-19T07:18:30.672Z,9.54
2022-10-19T07:20:59.680Z,9.59
2022-10-19T07:23:28.983Z,9.59
2022-10-19T07:26:01.754Z,9.27
2022-10-19T07:28:30.162Z,9.58
2022-10-19T07:30:57.388Z,9.67
2022-10-19T07:33:24.875Z,9.70
2022-10-19T07:35:59.209Z,9.71
2022-10-19T07:38:26.061Z,9.27
2022-10-19T07:41:04.129Z,9.66
2022-10-19T07:43:31.271Z,9.67
2022-10-19T07:46:10.769Z,9.68
2022-10-19T07:48:37.836Z,9.51
2022-10-19T07:51:07.486Z,9.01
2022-10-19T07:53:35.484Z,9.59
2022-10-19T07:56:08.553Z,9.57
2022-10-19T07:58:36.810Z,9.53
2022-10-19T08:01:21.166Z,9.00
2022-10-19T08:06:37.556Z,8.53
2022-10-19T08:09:05.761Z,9.43
2022-10-19T08:11:34.985Z,9.42
2022-10-19T08:14:05.506Z,9.28
2022-10-19T08:16:39.523Z,9.34
2022-10-19T08:19:12.557Z,9.46
2022-10-19T08:21:42.694Z,9.47
2022-10-19T08:24:11.491Z,9.01
2022-10-19T08:26:39.293Z,9.28
2022-10-19T08:29:07.752Z,9.34
2022-10-19T08:31:34.997Z,9.28
2022-10-19T08:34:02.555Z,9.16
2022-10-19T08:36:31.466Z,9.35
2022-10-19T08:38:59.304Z,9.02
2022-10-19T08:41:41.336Z,9.46
2022-10-19T08:44:17.478Z,9.55
2022-10-19T08:46:50.554Z,9.62
2022-10-19T08:49:21.659Z,9.50
2022-10-19T08:51:55.824Z,9.68
2022-10-19T08:54:24.468Z,9.71
2022-10-19T08:57:02.630Z,9.77
2022-10-19T09:00:11.212Z,9.86
2022-10-19T09:02:41.077Z,9.89
2022-10-19T09:05:27.857Z,9.42
2022-10-19T09:07:55.545Z,9.48
2022-10-19T09:10:26.770Z,9.68
2022-10-19T09:13:02.022Z,9.15
2022-10-19T09:15:42.694Z,9.62
2022-10-19T09:18:30.335Z,9.70
2022-10-19T09:20:57.230Z,9.84
2022-10-19T09:23:37.436Z,8.77
2022-10-19T09:26:11.168Z,9.66
2022-10-19T09:28:44.673Z,9.71
2022-10-19T09:31:17.243Z,9.48
2022-10-19T09:33:50.491Z,9.53
2022-10-19T09:36:22.824Z,9.45
2022-10-19T09:38:54.525Z,9.74
2022-10-19T09:41:23.855Z,9.63
2022-10-19T09:43:55.737Z,9.60
2022-10-19T09:46:52.345Z,9.30
2022-10-19T09:49:45.066Z,9.64
2022-10-19T09:52:38.297Z,9.58
2022-10-19T09:55:28.729Z,9.06
2022-10-19T09:58:15.722Z,9.49
2022-10-19T10:00:45.811Z,8.71
2022-10-19T10:03:29.511Z,9.62
2022-10-19T10:06:08.397Z,9.50
2022-10-19T10:08:44.877Z,9.42
2022-10-19T10:11:15.411Z,9.03
2022-10-19T10:13:50.326Z,9.24
2022-10-19T10:16:21.236Z,9.46
2022-10-19T10:18:55.880Z,9.42
2022-10-19T10:21:26.441Z,8.83
2022-10-19T10:24:06.118Z,8.57
2022-10-19T10:26:43.212Z,9.37
2022-10-19T10:29:28.844Z,8.77
2022-10-19T10:32:07.953Z,9.24
2022-10-19T10:34:50.997Z,9.38
2022-10-19T10:37:24.641Z,9.39
2022-10-19T10:39:59.181Z,9.12
2022-10-19T10:42:41.883Z,9.31
2022-10-19T10:45:39.791Z,9.48
2022-10-19T10:48:28.673Z,8.92
2022-10-19T10:50:57.557Z,9.49
2022-10-19T10:53:40.692Z,9.54
2022-10-19T10:56:24.879Z,9.43
2022-10-19T10:58:58.098Z,9.58
2022-10-19T11:01:30.575Z,9.56
2022-10-19T11:04:04.658Z,9.46
2022-10-19T11:06:38.534Z,9.68
2022-10-19T11:09:16.144Z,9.31
2022-10-19T11:11:48.327Z,9.65
2022-10-19T11:14:30.794Z,9.73
2022-10-19T11:17:07.400Z,8.00
2022-10-19T11:19:39.651Z,9.72
2022-10-19T11:22:28.804Z,9.72
2022-10-19T11:25:07.738Z,9.82
2022-10-19T11:27:52.945Z,9.92
2022-10-19T11:30:22.494Z,8.71
2022-10-19T11:32:49.367Z,9.57
2022-10-19T11:35:34.662Z,9.96
2022-10-19T11:38:22.590Z,9.92
2022-10-19T11:41:18.295Z,9.84
2022-10-19T11:44:06.184Z,9.84
2022-10-19T11:47:08.876Z,9.63
2022-10-19T11:49:46.644Z,9.77
2022-10-19T11:52:20.322Z,9.73
2022-10-19T11:55:05.954Z,9.67
2022-10-19T11:57:37.704Z,9.27
2022-10-19T12:00:27.200Z,9.67
2022-10-19T12:03:25.293Z,9.65
2022-10-19T12:06:04.661Z,9.63
2022-10-19T12:08:37.984Z,9.62
2022-10-19T12:11:42.048Z,9.10
2022-10-19T12:14:17.983Z,9.47
2022-10-19T12:16:50.854Z,9.52
2022-10-19T12:19:25.048Z,9.31
2022-10-19T12:21:58.739Z,9.39
2022-10-19T12:24:28.657Z,9.43
2022-10-19T12:26:56.430Z,9.38
2022-10-19T12:29:27.810Z,7.86
2022-10-19T12:31:56.574Z,9.24
2022-10-19T12:34:35.587Z,9.78
2022-10-19T12:37:03.421Z,9.76
2022-10-19T12:40:19.594Z,9.82
2022-10-19T12:43:17.372Z,9.75
2022-10-19T12:46:06.958Z,9.54
2022-10-19T12:48:36.541Z,9.62
2022-10-19T12:51:07.666Z,9.59
2022-10-19T12:53:40.873Z,9.36
2022-10-19T12:56:17.567Z,8.94
2022-10-19T12:58:46.729Z,9.51
2022-10-19T13:01:21.241Z,9.13
2022-10-19T13:03:51.426Z,9.51
2022-10-19T13:06:32.240Z,9.49
2022-10-19T13:09:02.924Z,9.52
2022-10-19T13:11:30.457Z,9.38
2022-10-19T13:14:06.820Z,9.39
2022-10-19T13:16:41.051Z,9.20
2022-10-19T13:19:14.174Z,9.57
2022-10-19T13:21:49.070Z,9.30
2022-10-19T13:24:25.020Z,9.38
2022-10-19T13:27:18.483Z,9.47
2022-10-19T13:29:45.618Z,9.40
2022-10-19T13:32:49.581Z,9.64
2022-10-19T13:35:31.409Z,9.65
2022-10-19T13:38:16.719Z,9.25
2022-10-19T13:40:49.847Z,9.68
2022-10-19T13:43:26.540Z,9.69
2022-10-19T13:46:01.156Z,9.51
2022-10-19T13:48:42.875Z,9.22
2022-10-19T13:51:28.681Z,9.64
2022-10-19T13:54:18.582Z,9.65
2022-10-19T13:57:11.012Z,9.72
2022-10-19T14:00:07.151Z,9.72
2022-10-19T14:02:43.902Z,9.67
2022-10-19T14:05:46.341Z,9.18
2022-10-19T14:08:50.800Z,9.80
2022-10-19T14:11:21.477Z,9.55
2022-10-19T14:14:21.576Z,9.72
2022-10-19T14:16:54.501Z,9.60
2022-10-19T14:19:28.203Z,9.80
2022-10-19T14:22:16.413Z,9.45
2022-10-19T14:24:43.524Z,9.59
2022-10-19T14:27:19.695Z,9.67
2022-10-19T14:29:49.450Z,9.50
2022-10-19T14:32:18.377Z,9.25
2022-10-19T14:34:47.972Z,8.95
2022-10-19T14:37:27.060Z,9.62
2022-10-19T14:40:07.785Z,9.65
2022-10-19T14:42:43.305Z,9.46
2022-10-19T14:45:23.395Z,9.69
2022-10-19T14:48:07.679Z,9.72
2022-10-19T14:50:49.008Z,9.66
2022-10-19T14:53:46.040Z,9.68
2022-10-19T14:56:19.001Z,9.46
2022-10-19T14:58:53.477Z,9.30
2022-10-19T15:01:21.504Z,9.02
2022-10-19T15:03:50.032Z,9.54
2022-10-19T15:06:21.674Z,8.85
2022-10-19T15:09:05.281Z,9.60
2022-10-19T15:11:38.656Z,9.59
2022-10-19T15:14:14.429Z,9.47
2022-10-19T15:16:43.482Z,9.58
2022-10-19T15:19:23.577Z,7.79
2022-10-19T15:22:17.609Z,8.75
2022-10-19T15:25:02.878Z,9.55
2022-10-19T15:27:39.373Z,9.49
2022-10-19T15:30:24.607Z,9.35
2022-10-19T15:33:03.120Z,9.49
2022-10-19T15:35:33.144Z,9.43
2022-10-19T15:38:05.691Z,8.14
2022-10-19T15:40:37.925Z,8.99
2022-10-19T15:43:24.908Z,9.46
2022-10-19T15:46:06.932Z,9.38
2022-10-19T15:48:51.138Z,9.36
2022-10-19T15:51:23.705Z,9.32
2022-10-19T15:54:02.383Z,8.88
2022-10-19T15:56:32.390Z,9.08
2022-10-19T15:59:01.494Z,9.06
2022-10-19T16:01:31.191Z,9.26
2022-10-19T16:03:58.762Z,8.46
2022-10-19T16:06:29.384Z,8.67
2022-10-19T16:08:57.409Z,9.22
2022-10-19T16:11:25.419Z,8.77
2022-10-19T16:13:52.521Z,9.03
2022-10-19T16:16:23.708Z,9.12
2022-10-19T16:18:51.293Z,9.09
2022-10-19T16:21:23.055Z,9.22
2022-10-19T16:23:50.074Z,9.13
2022-10-19T16:26:18.330Z,9.20
2022-10-19T16:28:45.904Z,9.13
2022-10-19T16:31:12.979Z,9.05
2022-10-19T16:33:40.059Z,9.06
2022-10-19T16:36:08.271Z,9.21
2022-10-19T16:38:35.976Z,9.11
2022-10-19T16:41:05.346Z,9.18
2022-10-19T16:43:32.546Z,8.86
2022-10-19T16:46:00.085Z,9.09
2022-10-19T16:48:27.618Z,9.07
2022-10-19T16:51:23.635Z,8.94
2022-10-19T16:53:57.368Z,8.67
2022-10-19T16:56:27.472Z,8.96
2022-10-19T16:58:56.010Z,9.07
2022-10-19T17:01:23.233Z,9.08
2022-10-19T17:03:50.450Z,8.50
2022-10-19T17:06:18.651Z,8.74
2022-10-19T17:09:30.247Z,9.12
2022-10-19T17:11:36.425Z,9.17
2022-10-19T17:14:07.152Z,9.19
2022-10-19T17:16:36.225Z,7.70
2022-10-19T17:19:04.858Z,8.73
2022-10-19T17:21:34.688Z,9.01
2022-10-19T17:24:03.737Z,8.62
2022-10-19T17:26:40.137Z,9.00
2022-10-19T17:29:07.751Z,8.99
2022-10-19T17:31:36.551Z,9.06
2022-10-19T17:34:04.409Z,8.52
2022-10-19T17:36:33.839Z,8.73
2022-10-19T17:39:04.699Z,8.67
2022-10-19T17:41:32.183Z,8.93
2022-10-19T17:43:59.706Z,8.58
2022-10-19T17:46:30.348Z,8.58
2022-10-19T17:48:58.496Z,8.85
2022-10-19T17:51:29.702Z,9.06
2022-10-19T17:54:03.068Z,8.92
2022-10-19T17:56:30.709Z,9.00
2022-10-19T17:58:58.685Z,8.85
2022-10-19T18:01:26.823Z,8.98
2022-10-19T18:03:54.051Z,8.57
2022-10-19T18:06:25.153Z,8.61
2022-10-19T18:08:55.261Z,8.97
2022-10-19T18:11:26.333Z,7.66
2022-10-19T18:13:56.590Z,8.41
2022-10-19T18:16:27.532Z,8.92
2022-10-19T18:18:57.402Z,8.49
2022-10-19T18:21:34.193Z,8.80
2022-10-19T18:24:02.597Z,8.83
2022-10-19T18:26:31.905Z,8.80
2022-10-19T18:29:00.484Z,8.74
2022-10-19T18:31:30.898Z,8.11
2022-10-19T18:34:03.141Z,8.17
2022-10-19T18:36:30.989Z,8.65
2022-10-19T18:39:00.648Z,8.68
2022-10-19T18:41:28.450Z,8.68
2022-10-19T18:43:58.426Z,8.53
2022-10-19T18:46:26.821Z,8.26
2022-10-19T18:48:54.240Z,8.67
2022-10-19T18:51:23.134Z,8.66
2022-10-19T18:53:50.515Z,8.43
2022-10-19T18:56:22.556Z,8.70
2022-10-19T18:58:49.981Z,8.64
2022-10-19T19:01:21.058Z,8.77
2022-10-19T19:03:52.537Z,8.80
2022-10-19T19:06:20.783Z,8.84
2022-10-19T19:08:48.061Z,8.72
2022-10-19T19:11:23.598Z,8.65
2022-10-19T19:14:10.687Z,8.69
2022-10-19T19:16:40.057Z,7.34
2022-10-19T19:19:10.448Z,8.73
2022-10-19T19:21:39.093Z,8.70
2022-10-19T19:24:07.126Z,8.56
2022-10-19T19:26:38.956Z,8.27
2022-10-19T19:29:06.017Z,8.54
2022-10-19T19:31:33.100Z,8.33
2022-10-19T19:34:01.446Z,8.05
2022-10-19T19:36:29.126Z,8.22
2022-10-19T19:38:57.568Z,8.19
2022-10-19T19:41:24.811Z,8.50
2022-10-19T19:43:55.558Z,8.55
2022-10-19T19:46:22.532Z,8.19
2022-10-19T19:48:49.795Z,8.51
2022-10-19T19:51:19.795Z,8.31
2022-10-19T19:53:49.226Z,8.37
2022-10-19T19:56:18.065Z,8.37
2022-10-19T19:58:45.613Z,8.39
2022-10-19T20:01:15.986Z,7.83
2022-10-19T20:03:43.739Z,8.40
2022-10-19T20:06:10.996Z,8.49
2022-10-19T20:08:38.698Z,8.22
2022-10-19T20:11:08.964Z,8.47
2022-10-19T20:13:36.562Z,8.45
2022-10-19T20:16:12.902Z,8.34
2022-10-19T20:18:41.392Z,8.45
2022-10-19T20:21:10.263Z,8.49
2022-10-19T20:23:39.919Z,8.23
2022-10-19T20:26:15.582Z,8.47
2022-10-19T20:28:42.830Z,8.46
2022-10-19T20:31:11.583Z,8.23
2022-10-19T20:33:40.124Z,8.27
2022-10-19T20:36:13.484Z,6.82
2022-10-19T20:38:45.244Z,8.38
2022-10-19T20:41:12.230Z,8.30
2022-10-19T20:43:39.318Z,8.33
2022-10-19T20:46:09.014Z,8.47
2022-10-19T20:48:35.975Z,8.42
2022-10-19T20:51:16.171Z,8.50
2022-10-19T20:53:46.486Z,8.47
2022-10-19T20:56:16.364Z,8.45
2022-10-19T20:58:45.105Z,8.37
2022-10-19T21:01:16.169Z,8.42
2022-10-19T21:03:57.740Z,8.43
2022-10-19T21:06:26.290Z,8.56
2022-10-19T21:08:53.395Z,8.61
2022-10-19T21:11:23.800Z,8.44
2022-10-19T21:13:57.039Z,8.53
2022-10-19T21:16:27.629Z,8.11
2022-10-19T21:18:55.022Z,8.57
2022-10-19T21:21:25.109Z,8.56
2022-10-19T21:23:56.614Z,8.45
2022-10-19T21:26:28.429Z,8.59
2022-10-19T21:28:56.002Z,8.47
2022-10-19T21:31:24.991Z,8.55
2022-10-19T21:33:53.051Z,8.40
2022-10-19T21:36:21.733Z,8.45
2022-10-19T21:38:48.932Z,8.40
2022-10-19T21:41:20.869Z,8.34
2022-10-19T21:43:50.912Z,8.26
2022-10-19T21:46:20.545Z,8.20
2022-10-19T21:48:48.318Z,8.23
2022-10-19T21:51:40.134Z,8.48
2022-10-19T21:56:46.567Z,8.14
2022-10-19T21:59:14.406Z,8.37
2022-10-19T22:01:41.914Z,7.87
2022-10-19T22:04:15.645Z,7.70
2022-10-19T22:06:43.248Z,7.62
2022-10-19T22:09:16.435Z,8.01
2022-10-19T22:11:44.079Z,8.33
2022-10-19T22:14:13.980Z,8.29
2022-10-19T22:16:41.840Z,8.35
2022-10-19T22:19:12.819Z,8.35
2022-10-19T22:21:40.292Z,8.35
2022-10-19T22:24:12.360Z,7.89
2022-10-19T22:26:45.330Z,8.21
2022-10-19T22:29:12.847Z,8.34
2022-10-19T22:31:40.135Z,8.21
2022-10-19T22:34:10.151Z,8.23
2022-10-19T22:36:38.070Z,7.92
2022-10-19T22:39:07.168Z,8.29
2022-10-19T22:41:34.169Z,8.30
2022-10-19T22:44:01.375Z,8.21
2022-10-19T22:46:28.507Z,8.15
2022-10-19T22:48:55.636Z,8.29
2022-10-19T22:51:22.709Z,7.98
2022-10-19T22:53:49.754Z,8.27
2022-10-19T22:56:16.918Z,7.98
2022-10-19T22:58:43.896Z,8.11
2022-10-19T23:01:13.327Z,8.08
2022-10-19T23:03:40.501Z,7.62
2022-10-19T23:06:09.198Z,8.13
2022-10-19T23:08:36.559Z,7.94
2022-10-19T23:11:03.808Z,8.15
2022-10-19T23:13:30.930Z,7.61
2022-10-19T23:15:57.899Z,8.16
2022-10-19T23:18:25.016Z,8.17
2022-10-19T23:21:00.341Z,8.13
2022-10-19T23:23:28.489Z,7.59
2022-10-19T23:25:59.881Z,8.07
2022-10-19T23:28:27.225Z,7.58
2022-10-19T23:30:57.034Z,7.94
2022-10-19T23:33:27.319Z,6.98
2022-10-19T23:35:54.399Z,8.03
2022-10-19T23:38:21.469Z,7.98
2022-10-19T23:40:48.376Z,8.04
2022-10-19T23:43:15.419Z,8.03
2022-10-19T23:45:44.522Z,7.94
2022-10-19T23:48:11.663Z,7.80
2022-10-19T23:50:38.726Z,7.79
2022-10-19T23:53:05.758Z,8.00
2022-10-19T23:55:32.736Z,7.78
2022-10-19T23:57:59.690Z,7.84
